createdAt,value
2023-03-21T00:00:56.569Z,8.90
2023-03-21T00:03:29.951Z,8.80
2023-03-21T00:05:57.855Z,8.80
2023-03-21T00:08:30.166Z,8.80
2023-03-21T00:11:09.921Z,8.80
2023-03-21T00:13:42.071Z,8.70
2023-03-21T00:16:26.369Z,8.70
2023-03-21T00:18:57.631Z,8.70
2023-03-21T00:21:55.300Z,8.70
2023-03-21T00:24:23.092Z,8.80
2023-03-21T00:26:51.565Z,8.80
2023-03-21T00:29:19.872Z,8.80
2023-03-21T00:31:47.658Z,8.80
2023-03-21T00:34:15.947Z,8.70
2023-03-21T00:36:43.483Z,8.60
2023-03-21T00:39:14.368Z,8.60
2023-03-21T00:41:43.364Z,8.60
2023-03-21T00:44:16.096Z,8.60
2023-03-21T00:47:04.436Z,8.60
2023-03-21T00:49:34.355Z,8.70
2023-03-21T00:52:15.271Z,8.80
2023-03-21T00:54:44.602Z,8.80
2023-03-21T00:57:12.323Z,8.70
2023-03-21T00:59:39.827Z,8.70
2023-03-21T01:02:07.553Z,8.70
2023-03-21T01:04:35.124Z,8.60
2023-03-21T01:07:02.486Z,8.60
2023-03-21T01:09:30.427Z,8.60
2023-03-21T01:11:58.230Z,8.60
2023-03-21T01:14:25.877Z,8.70
2023-03-21T01:16:54.486Z,8.70
2023-03-21T01:19:48.401Z,8.80
2023-03-21T01:22:16.299Z,8.80
2023-03-21T01:24:55.141Z,8.80
2023-03-21T01:27:26.534Z,8.80
2023-03-21T01:29:54.779Z,8.80
2023-03-21T01:32:22.387Z,8.90
2023-03-21T01:34:52.687Z,8.90
2023-03-21T01:37:22.999Z,8.80
2023-03-21T01:39:51.323Z,8.80
2023-03-21T01:42:20.205Z,8.80
2023-03-21T01:45:07.251Z,8.80
2023-03-21T01:47:47.059Z,8.70
2023-03-21T01:50:40.345Z,8.70
2023-03-21T01:53:30.277Z,8.70
2023-03-21T01:56:14.301Z,8.70
2023-03-21T01:58:55.382Z,8.80
2023-03-21T02:01:42.746Z,8.80
2023-03-21T02:04:12.324Z,8.80
2023-03-21T02:07:18.509Z,8.80
2023-03-21T02:09:53.454Z,8.80
2023-03-21T02:12:24.760Z,8.80
2023-03-21T02:14:54.825Z,8.80
2023-03-21T02:17:58.812Z,8.80
2023-03-21T02:20:52.600Z,8.80
2023-03-21T02:23:54.177Z,8.80
2023-03-21T02:27:03.564Z,8.80
2023-03-21T02:30:20.228Z,8.80
2023-03-21T02:33:03.670Z,8.80
2023-03-21T02:35:55.323Z,8.80
2023-03-21T02:38:49.541Z,8.80
2023-03-21T02:41:52.703Z,8.70
2023-03-21T02:45:16.423Z,8.80
2023-03-21T02:48:14.584Z,8.80
2023-03-21T02:51:01.576Z,8.80
2023-03-21T02:53:39.661Z,8.80
2023-03-21T02:56:12.688Z,8.80
2023-03-21T02:58:46.688Z,8.80
2023-03-21T03:04:36.764Z,8.80
2023-03-21T15:04:06.575Z,15.70
2023-03-21T15:06:48.467Z,15.70
2023-03-21T15:09:17.279Z,15.70
2023-03-21T15:12:25.303Z,15.70
2023-03-21T15:14:57.482Z,15.80
2023-03-21T15:17:58.850Z,15.70
2023-03-21T15:21:11.940Z,15.70
2023-03-21T15:24:55.960Z,15.70
2023-03-21T15:27:33.531Z,15.60
2023-03-21T15:30:09.796Z,15.70
2023-03-21T19:22:50.148Z,12.30
2023-03-21T19:25:17.330Z,12.30
2023-03-21T19:27:44.328Z,12.30
2023-03-21T19:30:15.568Z,12.30
2023-03-21T19:32:43.748Z,12.20
2023-03-21T19:35:11.098Z,12.20
2023-03-21T19:37:37.853Z,12.10
2023-03-21T19:40:06.215Z,12.10
2023-03-21T19:42:33.524Z,12.00
2023-03-21T19:45:00.853Z,12.00
2023-03-21T19:47:28.690Z,12.00
2023-03-21T19:50:42.091Z,12.00
2023-03-21T19:52:43.283Z,12.00
2023-03-21T19:55:11.007Z,12.00
2023-03-21T19:57:38.656Z,11.90
2023-03-21T20:00:10.824Z,11.90
2023-03-21T20:02:38.692Z,11.90
2023-03-21T20:05:07.330Z,11.90
2023-03-21T20:07:34.459Z,11.90
2023-03-21T20:10:01.656Z,12.00
2023-03-21T20:12:28.997Z,11.90
2023-03-21T20:15:17.584Z,11.80
2023-03-21T20:17:45.018Z,11.80
2023-03-21T20:20:17.849Z,11.70
2023-03-21T20:25:38.891Z,11.70
2023-03-21T20:28:15.667Z,11.70
2023-03-21T20:30:58.619Z,11.80
2023-03-21T20:33:26.568Z,11.70
2023-03-21T20:36:47.959Z,11.80
2023-03-21T20:38:52.499Z,11.70
2023-03-21T20:41:19.483Z,11.70
2023-03-21T20:46:41.123Z,11.80
2023-03-21T20:49:10.100Z,11.80
2023-03-21T20:54:24.619Z,11.80
2023-03-21T20:56:51.498Z,11.80
2023-03-21T20:59:26.586Z,11.80
2023-03-21T21:01:56.250Z,11.80
2023-03-21T21:04:41.251Z,11.80
2023-03-21T21:07:15.900Z,11.80
2023-03-21T21:09:46.981Z,11.80
2023-03-21T21:12:15.684Z,11.70
2023-03-21T21:14:42.929Z,11.70
2023-03-21T21:17:28.381Z,11.60
2023-03-21T21:19:57.447Z,11.60
2023-03-21T21:22:24.318Z,11.60
2023-03-21T21:24:51.335Z,11.60
2023-03-21T21:27:18.473Z,11.50
2023-03-21T21:29:47.711Z,11.50
2023-03-21T21:32:17.043Z,11.40
2023-03-21T21:34:44.072Z,11.40
2023-03-21T21:37:10.902Z,11.30
2023-03-21T21:39:38.660Z,11.20
2023-03-21T21:42:05.872Z,11.10
2023-03-21T21:44:32.631Z,11.00
2023-03-21T21:46:59.848Z,10.80
2023-03-21T21:49:27.986Z,10.70
2023-03-21T21:51:56.192Z,10.70
2023-03-21T21:54:22.982Z,10.50
2023-03-21T21:56:54.155Z,10.40
2023-03-21T21:59:22.220Z,10.20
2023-03-21T22:01:51.384Z,10.10
2023-03-21T22:04:24.835Z,10.10
2023-03-21T22:06:51.997Z,10.00
2023-03-21T22:09:18.978Z,10.00
2023-03-21T22:11:45.945Z,9.90
2023-03-21T22:14:12.867Z,9.80
2023-03-21T22:16:39.672Z,9.90
2023-03-21T22:19:06.403Z,10.00
2023-03-21T22:21:33.170Z,10.00
2023-03-21T22:23:59.899Z,10.00
2023-03-21T22:26:26.670Z,10.10
2023-03-21T22:28:53.503Z,10.10
2023-03-21T22:31:22.370Z,10.10
2023-03-21T22:33:58.314Z,10.20
2023-03-21T22:36:32.351Z,10.10
2023-03-21T22:38:59.259Z,10.20
2023-03-21T22:41:26.295Z,10.20
2023-03-21T22:43:53.345Z,10.30
2023-03-21T22:46:20.342Z,10.30
2023-03-21T22:48:50.016Z,10.40
2023-03-21T22:51:16.950Z,10.40
2023-03-21T22:53:43.748Z,10.40
2023-03-21T22:56:13.644Z,10.40
2023-03-21T22:58:40.468Z,10.30
2023-03-21T23:01:07.412Z,10.30
2023-03-21T23:03:34.197Z,10.20
2023-03-21T23:06:01.405Z,10.20
2023-03-21T23:08:28.531Z,10.10
2023-03-21T23:10:55.424Z,10.00
2023-03-21T23:13:26.688Z,9.90
2023-03-21T23:15:53.601Z,9.80
2023-03-21T23:18:20.421Z,9.60
2023-03-21T23:20:49.834Z,9.40
2023-03-21T23:23:16.701Z,9.30
2023-03-21T23:25:43.614Z,9.20
2023-03-21T23:28:10.455Z,9.10
2023-03-21T23:30:39.109Z,9.00
2023-03-21T23:33:06.062Z,8.90
2023-03-21T23:35:35.524Z,8.80
2023-03-21T23:38:02.623Z,8.70
2023-03-21T23:40:29.418Z,8.70
2023-03-21T23:42:56.336Z,8.60
2023-03-21T23:45:23.131Z,8.50
2023-03-21T23:47:50.034Z,8.40
2023-03-21T23:50:17.080Z,8.30
2023-03-21T23:52:44.917Z,8.20
2023-03-21T23:55:11.835Z,8.10
2023-03-21T23:57:41.926Z,8.00
